sensor_id;sensor_type;location;lat;lon;timestamp;temperature;humidity
71237;DHT22;58984;51.960;5.582;2022-07-23T00:01:06;26.20;46.90
71237;DHT22;58984;51.960;5.582;2022-07-23T00:03:32;26.10;46.80
71237;DHT22;58984;51.960;5.582;2022-07-23T00:05:57;26.10;46.90
71237;DHT22;58984;51.960;5.582;2022-07-23T00:08:23;26.10;46.90
71237;DHT22;58984;51.960;5.582;2022-07-23T00:10:48;26.10;46.90
71237;DHT22;58984;51.960;5.582;2022-07-23T00:13:14;26.10;46.90
71237;DHT22;58984;51.960;5.582;2022-07-23T00:15:39;26.00;46.90
71237;DHT22;58984;51.960;5.582;2022-07-23T00:18:05;26.00;46.90
71237;DHT22;58984;51.960;5.582;2022-07-23T00:20:30;26.00;47.60
71237;DHT22;58984;51.960;5.582;2022-07-23T00:22:56;26.00;47.00
71237;DHT22;58984;51.960;5.582;2022-07-23T00:25:22;26.00;47.00
71237;DHT22;58984;51.960;5.582;2022-07-23T00:27:48;25.90;46.90
71237;DHT22;58984;51.960;5.582;2022-07-23T00:30:13;25.90;47.00
71237;DHT22;58984;51.960;5.582;2022-07-23T00:32:46;26.00;47.00
71237;DHT22;58984;51.960;5.582;2022-07-23T00:35:11;25.90;47.00
71237;DHT22;58984;51.960;5.582;2022-07-23T00:37:37;25.90;47.00
71237;DHT22;58984;51.960;5.582;2022-07-23T00:40:02;25.80;47.00
71237;DHT22;58984;51.960;5.582;2022-07-23T00:42:30;25.90;47.10
71237;DHT22;58984;51.960;5.582;2022-07-23T00:44:56;25.80;47.00
71237;DHT22;58984;51.960;5.582;2022-07-23T00:47:21;25.90;47.80
71237;DHT22;58984;51.960;5.582;2022-07-23T00:49:46;25.80;47.10
71237;DHT22;58984;51.960;5.582;2022-07-23T00:52:12;25.80;47.20
71237;DHT22;58984;51.960;5.582;2022-07-23T00:54:38;25.80;47.20
71237;DHT22;58984;51.960;5.582;2022-07-23T00:57:03;25.80;47.20
71237;DHT22;58984;51.960;5.582;2022-07-23T00:59:29;25.80;47.20
71237;DHT22;58984;51.960;5.582;2022-07-23T01:01:55;25.70;47.20
71237;DHT22;58984;51.960;5.582;2022-07-23T01:04:20;25.80;47.20
71237;DHT22;58984;51.960;5.582;2022-07-23T01:06:46;25.70;47.20
71237;DHT22;58984;51.960;5.582;2022-07-23T01:09:12;25.70;47.30
71237;DHT22;58984;51.960;5.582;2022-07-23T01:11:37;25.70;47.30
71237;DHT22;58984;51.960;5.582;2022-07-23T01:14:10;25.70;47.30
71237;DHT22;58984;51.960;5.582;2022-07-23T01:16:36;25.70;47.30
71237;DHT22;58984;51.960;5.582;2022-07-23T01:19:01;25.60;47.30
71237;DHT22;58984;51.960;5.582;2022-07-23T01:21:28;25.70;47.40
71237;DHT22;58984;51.960;5.582;2022-07-23T01:23:54;25.60;47.40
71237;DHT22;58984;51.960;5.582;2022-07-23T01:26:20;25.60;47.40
71237;DHT22;58984;51.960;5.582;2022-07-23T01:28:45;25.60;47.40
71237;DHT22;58984;51.960;5.582;2022-07-23T01:31:11;25.60;47.50
71237;DHT22;58984;51.960;5.582;2022-07-23T01:33:36;25.60;47.50
71237;DHT22;58984;51.960;5.582;2022-07-23T01:36:02;25.60;47.50
71237;DHT22;58984;51.960;5.582;2022-07-23T01:38:27;25.50;47.50
71237;DHT22;58984;51.960;5.582;2022-07-23T01:40:53;25.50;47.60
71237;DHT22;58984;51.960;5.582;2022-07-23T01:43:18;25.50;47.60
71237;DHT22;58984;51.960;5.582;2022-07-23T01:45:43;25.50;47.60
71237;DHT22;58984;51.960;5.582;2022-07-23T01:48:09;25.50;47.60
71237;DHT22;58984;51.960;5.582;2022-07-23T01:50:35;25.50;47.70
71237;DHT22;58984;51.960;5.582;2022-07-23T01:53:00;25.50;47.70
71237;DHT22;58984;51.960;5.582;2022-07-23T01:55:26;25.40;47.70
71237;DHT22;58984;51.960;5.582;2022-07-23T01:57:51;25.40;47.70
71237;DHT22;58984;51.960;5.582;2022-07-23T02:00:17;25.50;47.90
71237;DHT22;58984;51.960;5.582;2022-07-23T02:02:42;25.40;47.90
71237;DHT22;58984;51.960;5.582;2022-07-23T02:05:08;25.40;47.90
71237;DHT22;58984;51.960;5.582;2022-07-23T02:07:33;25.40;47.90
71237;DHT22;58984;51.960;5.582;2022-07-23T02:09:59;25.40;47.90
71237;DHT22;58984;51.960;5.582;2022-07-23T02:12:24;25.40;48.00
71237;DHT22;58984;51.960;5.582;2022-07-23T02:14:49;25.30;47.90
71237;DHT22;58984;51.960;5.582;2022-07-23T02:17:15;25.40;47.90
71237;DHT22;58984;51.960;5.582;2022-07-23T02:19:40;25.30;47.90
71237;DHT22;58984;51.960;5.582;2022-07-23T02:22:06;25.30;47.90
71237;DHT22;58984;51.960;5.582;2022-07-23T02:24:31;25.30;47.90
71237;DHT22;58984;51.960;5.582;2022-07-23T02:26:57;25.30;47.90
71237;DHT22;58984;51.960;5.582;2022-07-23T02:29:22;25.30;47.90
71237;DHT22;58984;51.960;5.582;2022-07-23T02:31:48;25.30;47.90
71237;DHT22;58984;51.960;5.582;2022-07-23T02:34:13;25.30;47.90
71237;DHT22;58984;51.960;5.582;2022-07-23T02:36:39;25.30;47.90
71237;DHT22;58984;51.960;5.582;2022-07-23T02:39:04;25.20;47.90
71237;DHT22;58984;51.960;5.582;2022-07-23T02:41:30;25.20;47.90
71237;DHT22;58984;51.960;5.582;2022-07-23T02:43:55;25.20;47.90
71237;DHT22;58984;51.960;5.582;2022-07-23T02:46:21;25.20;47.90
71237;DHT22;58984;51.960;5.582;2022-07-23T02:48:46;25.20;47.90
71237;DHT22;58984;51.960;5.582;2022-07-23T02:51:12;25.20;47.90
71237;DHT22;58984;51.960;5.582;2022-07-23T02:53:37;25.20;47.90
71237;DHT22;58984;51.960;5.582;2022-07-23T02:56:03;25.10;47.90
71237;DHT22;58984;51.960;5.582;2022-07-23T02:58:29;25.10;47.90
71237;DHT22;58984;51.960;5.582;2022-07-23T03:00:54;25.10;47.80
71237;DHT22;58984;51.960;5.582;2022-07-23T03:03:20;25.10;47.80
71237;DHT22;58984;51.960;5.582;2022-07-23T03:05:45;25.10;47.90
71237;DHT22;58984;51.960;5.582;2022-07-23T03:08:11;25.10;47.90
71237;DHT22;58984;51.960;5.582;2022-07-23T03:10:36;25.00;47.90
71237;DHT22;58984;51.960;5.582;2022-07-23T03:13:02;25.00;47.90
71237;DHT22;58984;51.960;5.582;2022-07-23T03:15:27;25.00;47.90
71237;DHT22;58984;51.960;5.582;2022-07-23T03:17:52;25.00;47.90
71237;DHT22;58984;51.960;5.582;2022-07-23T03:20:18;25.00;47.90
71237;DHT22;58984;51.960;5.582;2022-07-23T03:22:43;25.00;47.90
71237;DHT22;58984;51.960;5.582;2022-07-23T03:25:09;24.90;47.90
71237;DHT22;58984;51.960;5.582;2022-07-23T03:27:34;24.90;47.90
71237;DHT22;58984;51.960;5.582;2022-07-23T03:30:00;24.90;48.00
71237;DHT22;58984;51.960;5.582;2022-07-23T03:32:26;24.90;48.00
71237;DHT22;58984;51.960;5.582;2022-07-23T03:34:51;24.90;48.00
71237;DHT22;58984;51.960;5.582;2022-07-23T03:37:17;24.90;48.70
71237;DHT22;58984;51.960;5.582;2022-07-23T03:39:43;24.90;48.10
71237;DHT22;58984;51.960;5.582;2022-07-23T03:42:08;24.90;48.10
71237;DHT22;58984;51.960;5.582;2022-07-23T03:44:34;24.80;48.00
71237;DHT22;58984;51.960;5.582;2022-07-23T03:47:02;24.80;48.00
71237;DHT22;58984;51.960;5.582;2022-07-23T03:49:27;24.80;48.10
71237;DHT22;58984;51.960;5.582;2022-07-23T03:51:53;24.80;48.10
71237;DHT22;58984;51.960;5.582;2022-07-23T03:54:18;24.80;48.10
71237;DHT22;58984;51.960;5.582;2022-07-23T03:56:43;24.80;48.20
71237;DHT22;58984;51.960;5.582;2022-07-23T03:59:09;24.70;48.10
71237;DHT22;58984;51.960;5.582;2022-07-23T04:01:35;24.70;48.10
71237;DHT22;58984;51.960;5.582;2022-07-23T04:04:00;24.70;48.10
71237;DHT22;58984;51.960;5.582;2022-07-23T04:06:26;24.70;48.20
71237;DHT22;58984;51.960;5.582;2022-07-23T04:08:51;24.70;48.20
71237;DHT22;58984;51.960;5.582;2022-07-23T04:11:17;24.70;48.20
71237;DHT22;58984;51.960;5.582;2022-07-23T04:13:42;24.60;48.10
71237;DHT22;58984;51.960;5.582;2022-07-23T04:16:07;24.70;48.20
71237;DHT22;58984;51.960;5.582;2022-07-23T04:18:33;24.60;48.20
71237;DHT22;58984;51.960;5.582;2022-07-23T04:20:58;24.60;48.20
71237;DHT22;58984;51.960;5.582;2022-07-23T04:23:24;24.60;48.20
71237;DHT22;58984;51.960;5.582;2022-07-23T04:25:49;24.60;48.20
71237;DHT22;58984;51.960;5.582;2022-07-23T04:28:15;24.60;48.20
71237;DHT22;58984;51.960;5.582;2022-07-23T04:30:40;24.60;48.30
71237;DHT22;58984;51.960;5.582;2022-07-23T04:33:06;24.60;48.30
71237;DHT22;58984;51.960;5.582;2022-07-23T04:35:32;24.60;48.40
71237;DHT22;58984;51.960;5.582;2022-07-23T04:37:58;24.50;48.30
71237;DHT22;58984;51.960;5.582;2022-07-23T04:40:23;24.50;48.30
71237;DHT22;58984;51.960;5.582;2022-07-23T04:42:49;24.50;48.30
71237;DHT22;58984;51.960;5.582;2022-07-23T04:45:14;24.50;48.30
71237;DHT22;58984;51.960;5.582;2022-07-23T04:47:40;24.40;48.20
71237;DHT22;58984;51.960;5.582;2022-07-23T04:50:05;24.40;48.30
71237;DHT22;58984;51.960;5.582;2022-07-23T04:52:31;24.50;48.40
71237;DHT22;58984;51.960;5.582;2022-07-23T04:54:56;24.40;48.40
71237;DHT22;58984;51.960;5.582;2022-07-23T04:57:21;24.40;48.40
71237;DHT22;58984;51.960;5.582;2022-07-23T04:59:47;24.40;48.50
71237;DHT22;58984;51.960;5.582;2022-07-23T05:02:12;24.40;48.40
71237;DHT22;58984;51.960;5.582;2022-07-23T05:04:38;24.40;49.10
71237;DHT22;58984;51.960;5.582;2022-07-23T05:07:04;24.40;48.50
71237;DHT22;58984;51.960;5.582;2022-07-23T05:09:29;24.40;48.50
71237;DHT22;58984;51.960;5.582;2022-07-23T05:11:54;24.40;48.60
71237;DHT22;58984;51.960;5.582;2022-07-23T05:14:20;24.40;48.60
71237;DHT22;58984;51.960;5.582;2022-07-23T05:16:45;24.30;48.50
71237;DHT22;58984;51.960;5.582;2022-07-23T05:19:11;24.40;48.60
71237;DHT22;58984;51.960;5.582;2022-07-23T05:21:36;24.30;48.60
71237;DHT22;58984;51.960;5.582;2022-07-23T05:24:02;24.30;48.70
71237;DHT22;58984;51.960;5.582;2022-07-23T05:26:27;24.30;48.70
71237;DHT22;58984;51.960;5.582;2022-07-23T05:28:53;24.30;48.70
71237;DHT22;58984;51.960;5.582;2022-07-23T05:31:18;24.30;48.80
71237;DHT22;58984;51.960;5.582;2022-07-23T05:33:44;24.30;48.80
71237;DHT22;58984;51.960;5.582;2022-07-23T05:36:09;24.30;48.80
71237;DHT22;58984;51.960;5.582;2022-07-23T05:38:35;24.30;48.80
71237;DHT22;58984;51.960;5.582;2022-07-23T05:41:01;24.30;48.80
71237;DHT22;58984;51.960;5.582;2022-07-23T05:43:26;24.30;48.80
71237;DHT22;58984;51.960;5.582;2022-07-23T05:45:52;24.30;48.90
71237;DHT22;58984;51.960;5.582;2022-07-23T05:48:17;24.30;48.90
71237;DHT22;58984;51.960;5.582;2022-07-23T05:50:43;24.30;48.90
71237;DHT22;58984;51.960;5.582;2022-07-23T05:53:08;24.20;48.90
71237;DHT22;58984;51.960;5.582;2022-07-23T05:55:34;24.20;48.90
71237;DHT22;58984;51.960;5.582;2022-07-23T05:57:59;24.20;48.90
71237;DHT22;58984;51.960;5.582;2022-07-23T06:00:25;24.20;49.00
71237;DHT22;58984;51.960;5.582;2022-07-23T06:02:51;24.20;49.00
71237;DHT22;58984;51.960;5.582;2022-07-23T06:05:16;24.20;49.10
71237;DHT22;58984;51.960;5.582;2022-07-23T06:07:42;24.20;49.10
71237;DHT22;58984;51.960;5.582;2022-07-23T06:10:07;24.20;49.10
71237;DHT22;58984;51.960;5.582;2022-07-23T06:12:33;24.20;49.20
71237;DHT22;58984;51.960;5.582;2022-07-23T06:14:58;24.30;49.50
71237;DHT22;58984;51.960;5.582;2022-07-23T06:17:24;24.30;49.20
71237;DHT22;58984;51.960;5.582;2022-07-23T06:19:50;24.20;49.20
71237;DHT22;58984;51.960;5.582;2022-07-23T06:22:15;24.20;49.20
71237;DHT22;58984;51.960;5.582;2022-07-23T06:24:40;24.20;49.20
71237;DHT22;58984;51.960;5.582;2022-07-23T06:27:06;24.20;49.20
71237;DHT22;58984;51.960;5.582;2022-07-23T06:29:31;24.20;49.20
71237;DHT22;58984;51.960;5.582;2022-07-23T06:31:57;24.20;49.20
71237;DHT22;58984;51.960;5.582;2022-07-23T06:34:22;24.20;49.20
71237;DHT22;58984;51.960;5.582;2022-07-23T06:36:48;24.20;49.20
71237;DHT22;58984;51.960;5.582;2022-07-23T06:39:13;24.20;49.20
71237;DHT22;58984;51.960;5.582;2022-07-23T06:41:39;24.20;49.20
71237;DHT22;58984;51.960;5.582;2022-07-23T06:44:04;24.20;49.10
71237;DHT22;58984;51.960;5.582;2022-07-23T06:46:30;24.20;49.10
71237;DHT22;58984;51.960;5.582;2022-07-23T06:48:55;24.20;49.00
71237;DHT22;58984;51.960;5.582;2022-07-23T06:51:21;24.20;49.00
71237;DHT22;58984;51.960;5.582;2022-07-23T06:53:46;24.20;49.00
71237;DHT22;58984;51.960;5.582;2022-07-23T06:56:12;24.20;49.00
71237;DHT22;58984;51.960;5.582;2022-07-23T06:58:37;24.20;48.90
71237;DHT22;58984;51.960;5.582;2022-07-23T07:01:03;24.30;49.00
71237;DHT22;58984;51.960;5.582;2022-07-23T07:03:28;24.30;49.00
71237;DHT22;58984;51.960;5.582;2022-07-23T07:05:55;24.20;48.90
71237;DHT22;58984;51.960;5.582;2022-07-23T07:08:22;24.30;48.90
71237;DHT22;58984;51.960;5.582;2022-07-23T07:10:48;24.20;48.80
71237;DHT22;58984;51.960;5.582;2022-07-23T07:13:13;24.30;48.90
71237;DHT22;58984;51.960;5.582;2022-07-23T07:15:39;24.30;48.80
71237;DHT22;58984;51.960;5.582;2022-07-23T07:18:04;24.30;48.80
71237;DHT22;58984;51.960;5.582;2022-07-23T07:20:30;24.30;48.80
71237;DHT22;58984;51.960;5.582;2022-07-23T07:22:55;24.30;48.80
71237;DHT22;58984;51.960;5.582;2022-07-23T07:25:21;24.40;48.80
71237;DHT22;58984;51.960;5.582;2022-07-23T07:27:46;24.40;48.70
71237;DHT22;58984;51.960;5.582;2022-07-23T07:30:12;24.40;48.60
71237;DHT22;58984;51.960;5.582;2022-07-23T07:32:37;24.40;48.60
71237;DHT22;58984;51.960;5.582;2022-07-23T07:35:04;24.40;48.60
71237;DHT22;58984;51.960;5.582;2022-07-23T07:37:29;24.40;48.50
71237;DHT22;58984;51.960;5.582;2022-07-23T07:39:55;24.50;48.60
71237;DHT22;58984;51.960;5.582;2022-07-23T07:42:20;24.50;48.50
71237;DHT22;58984;51.960;5.582;2022-07-23T07:44:46;24.50;48.60
71237;DHT22;58984;51.960;5.582;2022-07-23T07:47:11;24.60;48.60
71237;DHT22;58984;51.960;5.582;2022-07-23T07:49:36;24.60;48.60
71237;DHT22;58984;51.960;5.582;2022-07-23T07:52:02;24.60;48.60
71237;DHT22;58984;51.960;5.582;2022-07-23T07:54:28;24.60;48.50
71237;DHT22;58984;51.960;5.582;2022-07-23T07:56:53;24.70;48.60
71237;DHT22;58984;51.960;5.582;2022-07-23T07:59:19;24.60;48.50
71237;DHT22;58984;51.960;5.582;2022-07-23T08:01:44;24.70;48.60
71237;DHT22;58984;51.960;5.582;2022-07-23T08:04:10;24.70;48.60
71237;DHT22;58984;51.960;5.582;2022-07-23T08:06:35;24.70;48.70
71237;DHT22;58984;51.960;5.582;2022-07-23T08:09:00;24.80;48.80
71237;DHT22;58984;51.960;5.582;2022-07-23T08:11:26;24.80;48.80
71237;DHT22;58984;51.960;5.582;2022-07-23T08:13:51;24.90;48.90
71237;DHT22;58984;51.960;5.582;2022-07-23T08:16:17;24.90;48.80
71237;DHT22;58984;51.960;5.582;2022-07-23T08:18:42;24.90;48.80
71237;DHT22;58984;51.960;5.582;2022-07-23T08:21:08;25.00;48.90
71237;DHT22;58984;51.960;5.582;2022-07-23T08:23:33;25.00;48.80
71237;DHT22;58984;51.960;5.582;2022-07-23T08:25:59;25.00;48.80
71237;DHT22;58984;51.960;5.582;2022-07-23T08:28:26;25.20;49.00
71237;DHT22;58984;51.960;5.582;2022-07-23T08:30:51;25.10;48.90
71237;DHT22;58984;51.960;5.582;2022-07-23T08:33:17;25.20;49.00
71237;DHT22;58984;51.960;5.582;2022-07-23T08:35:47;25.20;49.00
71237;DHT22;58984;51.960;5.582;2022-07-23T08:38:14;25.20;48.90
71237;DHT22;58984;51.960;5.582;2022-07-23T08:40:41;25.30;49.00
71237;DHT22;58984;51.960;5.582;2022-07-23T08:43:08;25.30;48.90
71237;DHT22;58984;51.960;5.582;2022-07-23T08:45:38;25.40;49.00
71237;DHT22;58984;51.960;5.582;2022-07-23T08:48:05;25.40;49.00
71237;DHT22;58984;51.960;5.582;2022-07-23T08:50:30;25.50;49.10
71237;DHT22;58984;51.960;5.582;2022-07-23T08:52:57;25.50;49.10
71237;DHT22;58984;51.960;5.582;2022-07-23T08:55:24;25.50;49.00
71237;DHT22;58984;51.960;5.582;2022-07-23T08:57:50;25.60;49.00
71237;DHT22;58984;51.960;5.582;2022-07-23T09:00:16;25.60;49.10
71237;DHT22;58984;51.960;5.582;2022-07-23T09:02:42;25.70;49.20
71237;DHT22;58984;51.960;5.582;2022-07-23T09:05:09;25.80;49.20
71237;DHT22;58984;51.960;5.582;2022-07-23T09:07:36;25.80;49.20
71237;DHT22;58984;51.960;5.582;2022-07-23T09:10:06;25.80;49.20
71237;DHT22;58984;51.960;5.582;2022-07-23T09:12:32;25.90;49.20
71237;DHT22;58984;51.960;5.582;2022-07-23T09:14:57;26.00;49.20
71237;DHT22;58984;51.960;5.582;2022-07-23T09:17:28;26.00;49.20
71237;DHT22;58984;51.960;5.582;2022-07-23T09:22:35;26.20;49.30
71237;DHT22;58984;51.960;5.582;2022-07-23T09:25:02;26.20;49.20
71237;DHT22;58984;51.960;5.582;2022-07-23T09:27:45;26.30;49.20
71237;DHT22;58984;51.960;5.582;2022-07-23T09:30:10;26.30;49.20
71237;DHT22;58984;51.960;5.582;2022-07-23T09:32:36;26.30;49.20
71237;DHT22;58984;51.960;5.582;2022-07-23T09:35:01;26.40;49.20
71237;DHT22;58984;51.960;5.582;2022-07-23T09:37:27;26.50;49.20
71237;DHT22;58984;51.960;5.582;2022-07-23T09:39:52;26.60;49.30
71237;DHT22;58984;51.960;5.582;2022-07-23T09:42:28;26.60;49.20
71237;DHT22;58984;51.960;5.582;2022-07-23T09:44:57;26.70;49.20
71237;DHT22;58984;51.960;5.582;2022-07-23T09:47:24;26.80;49.30
71237;DHT22;58984;51.960;5.582;2022-07-23T09:50:03;26.80;49.30
71237;DHT22;58984;51.960;5.582;2022-07-23T09:52:34;26.90;49.30
71237;DHT22;58984;51.960;5.582;2022-07-23T09:55:00;26.90;49.20
71237;DHT22;58984;51.960;5.582;2022-07-23T09:57:26;27.00;49.30
71237;DHT22;58984;51.960;5.582;2022-07-23T09:59:52;27.00;49.30
71237;DHT22;58984;51.960;5.582;2022-07-23T10:02:18;27.10;49.30
71237;DHT22;58984;51.960;5.582;2022-07-23T10:04:44;27.20;49.30
71237;DHT22;58984;51.960;5.582;2022-07-23T10:07:10;27.20;49.20
71237;DHT22;58984;51.960;5.582;2022-07-23T10:09:39;27.30;49.30
71237;DHT22;58984;51.960;5.582;2022-07-23T10:12:09;27.30;49.20
71237;DHT22;58984;51.960;5.582;2022-07-23T10:14:38;27.30;49.20
71237;DHT22;58984;51.960;5.582;2022-07-23T10:17:04;27.40;49.20
71237;DHT22;58984;51.960;5.582;2022-07-23T10:19:30;27.50;49.30
71237;DHT22;58984;51.960;5.582;2022-07-23T10:21:57;27.50;49.30
71237;DHT22;58984;51.960;5.582;2022-07-23T10:24:27;27.60;49.40
71237;DHT22;58984;51.960;5.582;2022-07-23T10:34:41;27.80;49.50
71237;DHT22;58984;51.960;5.582;2022-07-23T10:37:29;27.80;49.40
71237;DHT22;58984;51.960;5.582;2022-07-23T10:40:14;27.90;49.50
71237;DHT22;58984;51.960;5.582;2022-07-23T10:42:42;28.00;49.50
71237;DHT22;58984;51.960;5.582;2022-07-23T10:48:17;28.10;49.40
71237;DHT22;58984;51.960;5.582;2022-07-23T10:50:43;28.10;49.40
71237;DHT22;58984;51.960;5.582;2022-07-23T10:53:16;28.20;50.00
71237;DHT22;58984;51.960;5.582;2022-07-23T10:55:47;28.20;49.40
71237;DHT22;58984;51.960;5.582;2022-07-23T10:58:17;28.30;49.40
71237;DHT22;58984;51.960;5.582;2022-07-23T11:00:43;28.30;49.30
71237;DHT22;58984;51.960;5.582;2022-07-23T11:03:31;28.40;49.40
71237;DHT22;58984;51.960;5.582;2022-07-23T11:05:57;28.50;49.40
71237;DHT22;58984;51.960;5.582;2022-07-23T11:08:23;28.50;49.30
71237;DHT22;58984;51.960;5.582;2022-07-23T11:10:49;28.50;49.30
71237;DHT22;58984;51.960;5.582;2022-07-23T11:19:12;28.60;49.30
71237;DHT22;58984;51.960;5.582;2022-07-23T11:31:57;28.90;49.30
71237;DHT22;58984;51.960;5.582;2022-07-23T11:36:58;29.00;49.40
71237;DHT22;58984;51.960;5.582;2022-07-23T11:39:25;29.00;49.30
71237;DHT22;58984;51.960;5.582;2022-07-23T11:41:51;29.10;49.30
71237;DHT22;58984;51.960;5.582;2022-07-23T11:47:04;29.20;49.20
71237;DHT22;58984;51.960;5.582;2022-07-23T11:49:30;29.20;49.20
71237;DHT22;58984;51.960;5.582;2022-07-23T11:52:06;29.30;49.20
71237;DHT22;58984;51.960;5.582;2022-07-23T11:54:32;29.30;49.20
71237;DHT22;58984;51.960;5.582;2022-07-23T11:56:58;29.40;49.30
71237;DHT22;58984;51.960;5.582;2022-07-23T11:59:24;29.40;49.10
71237;DHT22;58984;51.960;5.582;2022-07-23T12:04:23;29.50;49.00
71237;DHT22;58984;51.960;5.582;2022-07-23T12:06:48;29.50;48.90
71237;DHT22;58984;51.960;5.582;2022-07-23T12:09:14;29.60;49.00
71237;DHT22;58984;51.960;5.582;2022-07-23T12:11:39;29.60;48.90
71237;DHT22;58984;51.960;5.582;2022-07-23T12:14:21;29.70;48.90
71237;DHT22;58984;51.960;5.582;2022-07-23T12:16:46;29.70;48.80
71237;DHT22;58984;51.960;5.582;2022-07-23T12:19:11;29.80;48.70
71237;DHT22;58984;51.960;5.582;2022-07-23T12:21:38;29.80;48.60
71237;DHT22;58984;51.960;5.582;2022-07-23T12:24:07;29.80;48.60
71237;DHT22;58984;51.960;5.582;2022-07-23T12:26:32;29.90;48.60
71237;DHT22;58984;51.960;5.582;2022-07-23T12:28:58;29.90;48.70
71237;DHT22;58984;51.960;5.582;2022-07-23T12:31:26;30.00;48.70
71237;DHT22;58984;51.960;5.582;2022-07-23T12:33:52;30.00;48.60
71237;DHT22;58984;51.960;5.582;2022-07-23T12:36:17;30.00;48.60
71237;DHT22;58984;51.960;5.582;2022-07-23T12:38:46;30.10;48.60
71237;DHT22;58984;51.960;5.582;2022-07-23T12:41:12;30.10;48.60
71237;DHT22;58984;51.960;5.582;2022-07-23T12:43:42;30.10;48.50
71237;DHT22;58984;51.960;5.582;2022-07-23T12:46:18;30.10;48.50
71237;DHT22;58984;51.960;5.582;2022-07-23T12:51:23;30.20;48.50
71237;DHT22;58984;51.960;5.582;2022-07-23T12:53:50;30.20;48.50
71237;DHT22;58984;51.960;5.582;2022-07-23T12:56:20;30.20;48.50
71237;DHT22;58984;51.960;5.582;2022-07-23T12:58:50;30.30;48.50
71237;DHT22;58984;51.960;5.582;2022-07-23T13:09:00;30.40;48.30
71237;DHT22;58984;51.960;5.582;2022-07-23T13:11:25;30.40;48.30
71237;DHT22;58984;51.960;5.582;2022-07-23T13:13:51;30.40;48.20
71237;DHT22;58984;51.960;5.582;2022-07-23T13:16:17;30.40;48.10
71237;DHT22;58984;51.960;5.582;2022-07-23T13:18:42;30.50;48.20
71237;DHT22;58984;51.960;5.582;2022-07-23T13:21:08;30.40;48.00
71237;DHT22;58984;51.960;5.582;2022-07-23T13:23:33;30.50;48.00
71237;DHT22;58984;51.960;5.582;2022-07-23T13:25:59;30.50;47.90
71237;DHT22;58984;51.960;5.582;2022-07-23T13:28:24;30.50;48.00
71237;DHT22;58984;51.960;5.582;2022-07-23T13:30:50;30.50;47.90
71237;DHT22;58984;51.960;5.582;2022-07-23T13:33:17;30.50;47.90
71237;DHT22;58984;51.960;5.582;2022-07-23T13:35:42;30.50;47.80
71237;DHT22;58984;51.960;5.582;2022-07-23T13:38:09;30.50;47.80
71237;DHT22;58984;51.960;5.582;2022-07-23T13:40:35;30.50;47.90
71237;DHT22;58984;51.960;5.582;2022-07-23T13:43:01;30.50;47.80
71237;DHT22;58984;51.960;5.582;2022-07-23T13:45:26;30.50;47.80
71237;DHT22;58984;51.960;5.582;2022-07-23T13:47:52;30.50;47.70
71237;DHT22;58984;51.960;5.582;2022-07-23T13:50:18;30.50;47.80
71237;DHT22;58984;51.960;5.582;2022-07-23T13:52:43;30.50;47.70
71237;DHT22;58984;51.960;5.582;2022-07-23T13:55:09;30.60;47.70
71237;DHT22;58984;51.960;5.582;2022-07-23T13:57:35;30.60;47.70
71237;DHT22;58984;51.960;5.582;2022-07-23T14:00:00;30.50;47.70
71237;DHT22;58984;51.960;5.582;2022-07-23T14:02:26;30.60;47.70
71237;DHT22;58984;51.960;5.582;2022-07-23T14:04:51;30.60;47.70
71237;DHT22;58984;51.960;5.582;2022-07-23T14:07:17;30.60;47.60
71237;DHT22;58984;51.960;5.582;2022-07-23T14:09:43;30.60;47.50
71237;DHT22;58984;51.960;5.582;2022-07-23T14:12:08;30.60;47.50
71237;DHT22;58984;51.960;5.582;2022-07-23T14:14:34;30.60;47.50
71237;DHT22;58984;51.960;5.582;2022-07-23T14:17:00;30.60;47.50
71237;DHT22;58984;51.960;5.582;2022-07-23T14:19:26;30.60;47.50
71237;DHT22;58984;51.960;5.582;2022-07-23T14:21:51;30.60;47.50
71237;DHT22;58984;51.960;5.582;2022-07-23T14:24:16;30.60;47.50
71237;DHT22;58984;51.960;5.582;2022-07-23T14:26:42;30.60;47.50
71237;DHT22;58984;51.960;5.582;2022-07-23T14:29:08;30.60;47.50
71237;DHT22;58984;51.960;5.582;2022-07-23T14:31:33;30.60;47.50
71237;DHT22;58984;51.960;5.582;2022-07-23T14:33:59;30.60;47.50
71237;DHT22;58984;51.960;5.582;2022-07-23T14:36:25;30.60;47.50
71237;DHT22;58984;51.960;5.582;2022-07-23T14:38:50;30.60;47.40
71237;DHT22;58984;51.960;5.582;2022-07-23T14:41:16;30.60;47.50
71237;DHT22;58984;51.960;5.582;2022-07-23T14:43:41;30.60;47.40
71237;DHT22;58984;51.960;5.582;2022-07-23T14:46:07;30.50;47.30
71237;DHT22;58984;51.960;5.582;2022-07-23T14:48:33;30.60;47.40
71237;DHT22;58984;51.960;5.582;2022-07-23T14:50:58;30.60;47.40
71237;DHT22;58984;51.960;5.582;2022-07-23T14:53:24;30.60;47.30
71237;DHT22;58984;51.960;5.582;2022-07-23T14:55:49;30.60;47.30
71237;DHT22;58984;51.960;5.582;2022-07-23T14:58:14;30.50;47.30
71237;DHT22;58984;51.960;5.582;2022-07-23T15:00:40;30.60;47.30
71237;DHT22;58984;51.960;5.582;2022-07-23T15:03:05;30.50;47.20
71237;DHT22;58984;51.960;5.582;2022-07-23T15:05:31;30.50;47.30
71237;DHT22;58984;51.960;5.582;2022-07-23T15:07:56;30.50;47.20
71237;DHT22;58984;51.960;5.582;2022-07-23T15:10:22;30.50;47.20
71237;DHT22;58984;51.960;5.582;2022-07-23T15:12:48;30.50;47.20
71237;DHT22;58984;51.960;5.582;2022-07-23T15:15:13;30.50;47.10
71237;DHT22;58984;51.960;5.582;2022-07-23T15:17:46;30.50;47.10
71237;DHT22;58984;51.960;5.582;2022-07-23T15:20:12;30.50;47.10
71237;DHT22;58984;51.960;5.582;2022-07-23T15:22:37;30.50;47.10
71237;DHT22;58984;51.960;5.582;2022-07-23T15:25:03;30.50;47.10
71237;DHT22;58984;51.960;5.582;2022-07-23T15:27:28;30.50;47.10
71237;DHT22;58984;51.960;5.582;2022-07-23T15:29:54;30.50;47.00
71237;DHT22;58984;51.960;5.582;2022-07-23T15:32:19;30.50;47.00
71237;DHT22;58984;51.960;5.582;2022-07-23T15:34:45;30.50;47.10
71237;DHT22;58984;51.960;5.582;2022-07-23T15:37:10;30.50;47.10
71237;DHT22;58984;51.960;5.582;2022-07-23T15:39:36;30.50;47.00
71237;DHT22;58984;51.960;5.582;2022-07-23T15:42:02;30.50;47.00
71237;DHT22;58984;51.960;5.582;2022-07-23T15:44:27;30.50;47.00
71237;DHT22;58984;51.960;5.582;2022-07-23T15:46:53;30.50;47.00
71237;DHT22;58984;51.960;5.582;2022-07-23T15:49:19;30.50;47.00
71237;DHT22;58984;51.960;5.582;2022-07-23T15:51:44;30.50;47.00
71237;DHT22;58984;51.960;5.582;2022-07-23T15:54:10;30.50;47.00
71237;DHT22;58984;51.960;5.582;2022-07-23T15:56:35;30.50;47.00
71237;DHT22;58984;51.960;5.582;2022-07-23T15:59:01;30.50;47.00
71237;DHT22;58984;51.960;5.582;2022-07-23T16:01:27;30.50;47.00
71237;DHT22;58984;51.960;5.582;2022-07-23T16:03:54;30.50;47.00
71237;DHT22;58984;51.960;5.582;2022-07-23T16:06:20;30.50;47.00
71237;DHT22;58984;51.960;5.582;2022-07-23T16:08:45;30.50;47.00
71237;DHT22;58984;51.960;5.582;2022-07-23T16:11:13;30.50;47.00